Time;durP1;ratioP1;P1;durP2;ratioP2;P2;SDS_P1;SDS_P2;PMS_P1;PMS_P2;Temp;Humidity;BMP_temperature;BMP_pressure;BME280_temperature;BME280_humidity;BME280_pressure;Samples;Min_cycle;Max_cycle;Signal;HPM_P1;HPM_P2
2023/10/31 00:00:17;;;;;;;5.03;4.93;;;;;;;12.94;93.55;99146.72;5055455;28;20187;-68
2023/10/31 00:02:43;;;;;;;9.60;6.30;;;;;;;12.84;93.51;99152.50;5055909;28;20187;-69
2023/10/31 00:05:10;;;;;;;6.73;6.40;;;;;;;12.79;93.74;99153.09;5055884;28;20202;-68
2023/10/31 00:07:36;;;;;;;7.80;7.50;;;;;;;12.61;93.67;99166.25;5056182;28;20297;-69
2023/10/31 00:10:03;;;;;;;7.57;7.27;;;;;;;12.45;93.20;99172.00;5055795;28;20198;-69
2023/10/31 00:12:30;;;;;;;8.60;8.23;;;;;;;12.35;93.55;99172.38;5055484;28;20659;-69
2023/10/31 00:14:56;;;;;;;7.37;7.03;;;;;;;12.13;93.21;99186.94;5055169;28;20321;-68
2023/10/31 00:17:22;;;;;;;8.67;8.30;;;;;;;11.99;93.57;99195.91;5055149;28;20629;-69
2023/10/31 00:19:49;;;;;;;6.83;6.73;;;;;;;11.88;93.15;99201.84;5055112;28;20183;-69
2023/10/31 00:22:16;;;;;;;5.93;5.83;;;;;;;11.69;93.05;99210.53;5055294;28;20565;-69
2023/10/31 00:24:42;;;;;;;6.30;6.20;;;;;;;11.48;92.76;99218.59;5055237;28;20605;-68
2023/10/31 00:27:09;;;;;;;7.47;7.17;;;;;;;11.38;92.93;99229.63;5055118;28;20211;-69
2023/10/31 00:29:35;;;;;;;7.00;6.77;;;;;;;11.32;92.00;99233.09;5054794;28;20675;-68
2023/10/31 00:32:02;;;;;;;6.17;5.97;;;;;;;11.24;92.09;99243.94;5054847;28;20244;-68
2023/10/31 00:34:33;;;;;;;5.27;5.17;;;;;;;11.15;91.83;99247.75;5055099;28;20168;-68
2023/10/31 00:36:59;;;;;;;8.17;5.20;;;;;;;11.11;91.79;99250.00;5053461;28;20241;-68
2023/10/31 00:39:26;;;;;;;4.47;4.47;;;;;;;11.10;91.61;99260.88;5053665;28;20191;-68
2023/10/31 00:41:52;;;;;;;5.27;5.17;;;;;;;10.99;92.09;99256.84;5053385;28;20191;-68
2023/10/31 00:44:19;;;;;;;5.90;5.80;;;;;;;11.00;92.04;99274.56;5054573;28;20191;-68
2023/10/31 00:46:45;;;;;;;5.33;5.20;;;;;;;10.94;91.31;99286.03;5053231;28;20215;-68
2023/10/31 00:49:12;;;;;;;5.80;5.50;;;;;;;10.90;91.59;99276.72;5053174;28;20222;-68
2023/10/31 00:51:38;;;;;;;5.90;5.80;;;;;;;10.91;90.89;99291.72;5055048;28;20190;-68
2023/10/31 00:54:05;;;;;;;5.53;5.43;;;;;;;10.88;91.22;99290.25;5053134;28;20191;-68
2023/10/31 00:56:31;;;;;;;4.50;4.40;;;;;;;10.87;90.97;99299.28;5054812;28;20210;-68
2023/10/31 00:58:57;;;;;;;4.17;4.17;;;;;;;10.83;91.33;99311.38;5054542;28;20191;-68
2023/10/31 01:01:24;;;;;;;4.23;4.23;;;;;;;10.80;91.25;99314.44;5054582;28;20587;-68
2023/10/31 01:03:50;;;;;;;4.07;4.07;;;;;;;10.76;90.49;99323.84;5054210;28;20278;-68
2023/10/31 01:06:18;;;;;;;3.23;3.13;;;;;;;10.74;90.51;99317.84;5054104;28;20706;-68
2023/10/31 01:08:45;;;;;;;4.73;4.33;;;;;;;10.64;89.81;99340.56;5052795;28;20233;-68
2023/10/31 01:11:11;;;;;;;4.07;3.70;;;;;;;10.62;89.97;99335.38;5052781;28;20203;-68
2023/10/31 01:13:38;;;;;;;5.47;5.23;;;;;;;10.54;89.79;99346.16;5054327;28;20183;-68
2023/10/31 01:16:05;;;;;;;5.00;4.70;;;;;;;10.51;90.25;99347.38;5054060;28;20215;-68
2023/10/31 01:18:31;;;;;;;8.67;4.43;;;;;;;10.50;90.08;99353.72;5053914;28;20265;-68
2023/10/31 01:20:58;;;;;;;4.67;4.67;;;;;;;10.46;89.88;99354.28;5053894;28;20187;-68
2023/10/31 01:23:24;;;;;;;4.90;4.70;;;;;;;10.50;90.11;99355.56;5052596;28;20685;-68
2023/10/31 01:25:51;;;;;;;5.93;5.20;;;;;;;10.48;89.88;99371.78;5052537;28;20191;-68
2023/10/31 01:28:17;;;;;;;5.17;4.97;;;;;;;10.38;89.62;99362.41;5051912;28;20574;-68
2023/10/31 01:30:44;;;;;;;5.53;5.43;;;;;;;10.33;89.48;99375.47;5052450;28;20198;-68
2023/10/31 01:33:10;;;;;;;5.20;5.10;;;;;;;10.32;89.33;99376.47;5053677;28;20655;-68
2023/10/31 01:35:37;;;;;;;5.63;5.33;;;;;;;10.33;89.98;99381.63;5053684;28;20273;-68
2023/10/31 01:38:03;;;;;;;6.23;6.03;;;;;;;10.27;89.72;99389.56;5052292;28;20219;-68
2023/10/31 01:40:30;;;;;;;5.33;4.97;;;;;;;10.31;89.59;99393.53;5053997;28;20191;-68
2023/10/31 01:42:56;;;;;;;5.67;5.53;;;;;;;10.26;89.70;99399.41;5052259;28;20195;-68
2023/10/31 01:45:23;;;;;;;6.20;5.67;;;;;;;10.29;89.73;99401.72;5052249;28;20195;-68
2023/10/31 01:47:49;;;;;;;6.60;6.07;;;;;;;10.28;89.80;99405.38;5054001;28;20259;-68
2023/10/31 01:50:17;;;;;;;6.03;5.80;;;;;;;10.34;89.21;99415.38;5053705;28;20277;-68
2023/10/31 01:52:45;;;;;;;6.97;6.77;;;;;;;10.34;88.67;99409.19;5053726;28;20673;-68
2023/10/31 01:55:12;;;;;;;7.83;7.30;;;;;;;10.37;88.76;99408.81;5053342;28;20201;-67
2023/10/31 01:57:39;;;;;;;6.80;6.60;;;;;;;10.33;88.49;99415.53;5053255;28;20297;-68
2023/10/31 02:00:06;;;;;;;6.30;6.00;;;;;;;10.39;88.58;99410.31;5052031;28;20191;-68
2023/10/31 02:02:40;;;;;;;7.20;6.80;;;;;;;10.38;88.68;99427.34;5053293;28;20218;-68
2023/10/31 02:05:06;;;;;;;7.20;6.83;;;;;;;10.40;88.43;99419.97;5053233;28;20274;-68
2023/10/31 02:07:33;;;;;;;7.57;7.20;;;;;;;10.44;88.42;99420.41;5051854;28;20222;-68
2023/10/31 02:10:00;;;;;;;7.77;7.37;;;;;;;10.40;88.45;99413.78;5051820;28;20302;-68
2023/10/31 02:12:37;;;;;;;7.13;7.03;;;;;;;10.46;88.46;99426.44;5051881;28;20195;-68
2023/10/31 02:15:04;;;;;;;7.70;7.30;;;;;;;10.47;88.65;99426.25;5053412;28;20531;-68
2023/10/31 02:17:30;;;;;;;8.00;7.60;;;;;;;10.49;88.26;99424.22;5052945;28;20717;-67
2023/10/31 02:19:57;;;;;;;9.17;8.60;;;;;;;10.45;89.10;99425.59;5053312;28;20187;-67
2023/10/31 02:22:24;;;;;;;10.17;9.23;;;;;;;10.45;89.26;99424.75;5051766;28;20190;-67
2023/10/31 02:24:50;;;;;;;8.80;8.20;;;;;;;10.45;89.75;99428.25;5052989;28;20241;-67
2023/10/31 02:27:17;;;;;;;9.13;8.77;;;;;;;10.44;89.78;99426.59;5051905;28;20739;-67
2023/10/31 02:29:43;;;;;;;9.43;8.93;;;;;;;10.39;90.08;99422.84;5052892;28;20207;-67
2023/10/31 02:32:10;;;;;;;10.57;9.63;;;;;;;10.45;90.37;99435.44;5052952;28;20195;-67
2023/10/31 02:34:37;;;;;;;10.10;9.60;;;;;;;10.39;90.59;99433.53;5052914;28;20198;-67
2023/10/31 02:37:05;;;;;;;9.30;8.63;;;;;;;10.33;91.35;99431.56;5051535;28;20219;-67
2023/10/31 02:39:31;;;;;;;10.30;9.63;;;;;;;10.24;91.87;99438.00;5052882;28;20233;-67
2023/10/31 02:41:57;;;;;;;10.93;9.83;;;;;;;10.27;92.54;99440.31;5054749;28;20195;-67
2023/10/31 02:44:24;;;;;;;10.97;10.00;;;;;;;10.25;93.05;99437.81;5055777;28;20202;-67
2023/10/31 02:46:50;;;;;;;12.10;10.73;;;;;;;10.23;93.44;99433.66;5057086;28;20207;-68
2023/10/31 02:49:17;;;;;;;10.83;10.03;;;;;;;10.22;93.75;99440.84;5056694;28;20242;-68
2023/10/31 02:51:43;;;;;;;11.23;10.27;;;;;;;10.15;93.97;99447.03;5057021;28;20191;-67
2023/10/31 02:54:10;;;;;;;13.53;10.50;;;;;;;10.06;94.20;99432.94;5057411;28;20187;-67
2023/10/31 02:56:39;;;;;;;10.70;9.93;;;;;;;10.09;94.51;99448.63;5056580;28;20261;-68
2023/10/31 02:59:05;;;;;;;11.60;10.53;;;;;;;10.06;95.05;99448.94;5056845;28;20183;-68
2023/10/31 03:01:32;;;;;;;11.40;10.20;;;;;;;10.03;95.74;99452.81;5056829;28;20184;-68
2023/10/31 03:03:59;;;;;;;10.37;9.50;;;;;;;10.00;95.61;99450.53;5056427;28;20670;-68
2023/10/31 03:06:25;;;;;;;10.80;9.80;;;;;;;10.02;95.88;99456.50;5055355;28;20215;-68
2023/10/31 03:08:52;;;;;;;14.37;11.10;;;;;;;10.07;96.16;99458.63;5056343;28;20207;-68
2023/10/31 03:11:25;;;;;;;13.50;12.20;;;;;;;10.04;96.04;99459.84;5056346;28;20191;-68
2023/10/31 03:13:56;;;;;;;14.47;12.70;;;;;;;10.07;96.33;99451.47;5056878;28;20183;-68
2023/10/31 03:16:23;;;;;;;15.27;12.43;;;;;;;10.06;96.49;99444.44;5056247;28;20264;-68
2023/10/31 03:18:49;;;;;;;13.70;12.27;;;;;;;10.07;96.34;99459.47;5056803;28;20547;-68
2023/10/31 03:21:17;;;;;;;19.07;14.30;;;;;;;10.12;96.14;99466.09;5054958;28;20195;-68
2023/10/31 03:23:48;;;;;;;15.77;14.17;;;;;;;10.10;96.26;99466.28;5056187;28;20266;-68
2023/10/31 03:26:16;;;;;;;19.83;14.53;;;;;;;10.15;96.44;99461.25;5054808;28;20264;-68
2023/10/31 03:28:44;;;;;;;24.60;14.40;;;;;;;10.20;96.30;99458.88;5055996;28;20207;-68
2023/10/31 03:31:12;;;;;;;14.50;13.03;;;;;;;10.20;96.27;99460.72;5056535;28;20202;-68
2023/10/31 03:33:39;;;;;;;18.20;15.53;;;;;;;10.19;96.57;99465.22;5056185;28;20218;-68
2023/10/31 03:36:05;;;;;;;18.60;14.20;;;;;;;10.22;96.14;99459.56;5055844;28;20215;-68
2023/10/31 03:38:32;;;;;;;19.30;15.87;;;;;;;10.17;96.06;99461.94;5054749;28;20572;-68
2023/10/31 03:40:58;;;;;;;22.97;14.83;;;;;;;10.20;96.07;99466.06;5054695;28;20660;-68
2023/10/31 03:43:25;;;;;;;17.27;14.43;;;;;;;10.25;95.69;99469.03;5055803;28;20230;-68
2023/10/31 03:45:52;;;;;;;18.10;14.20;;;;;;;10.30;95.49;99464.81;5054410;28;20219;-68
2023/10/31 03:48:18;;;;;;;26.83;15.10;;;;;;;10.33;95.42;99461.78;5055955;28;20233;-68
2023/10/31 03:50:45;;;;;;;14.00;12.67;;;;;;;10.31;95.42;99466.47;5055765;28;20744;-68
2023/10/31 03:53:11;;;;;;;17.13;14.00;;;;;;;10.31;95.71;99463.00;5055143;28;20724;-68
2023/10/31 03:55:38;;;;;;;31.17;14.07;;;;;;;10.35;95.46;99473.13;5055578;28;20191;-68
2023/10/31 03:58:05;;;;;;;20.53;12.23;;;;;;;10.31;95.56;99479.00;5055488;28;20179;-68
2023/10/31 04:00:32;;;;;;;13.20;11.20;;;;;;;10.28;95.66;99476.69;5055461;28;20198;-68
2023/10/31 04:02:58;;;;;;;10.53;9.67;;;;;;;10.28;95.73;99474.84;5055380;28;20191;-68
2023/10/31 04:05:25;;;;;;;11.70;10.70;;;;;;;10.31;95.76;99481.69;5055348;28;20198;-68
2023/10/31 04:07:51;;;;;;;11.07;10.00;;;;;;;10.32;95.52;99475.31;5055263;28;20211;-68
2023/10/31 04:10:18;;;;;;;11.23;10.23;;;;;;;10.34;95.66;99476.81;5055742;28;20207;-68
2023/10/31 04:12:45;;;;;;;15.93;11.30;;;;;;;10.34;95.65;99481.31;5055523;28;20187;-68
2023/10/31 04:15:11;;;;;;;15.00;10.50;;;;;;;10.33;95.53;99485.00;5055109;28;20187;-68
2023/10/31 04:17:38;;;;;;;11.63;10.53;;;;;;;10.36;95.17;99484.63;5055197;28;20219;-68
2023/10/31 04:20:05;;;;;;;17.53;10.97;;;;;;;10.41;95.19;99487.59;5055554;28;20184;-68
2023/10/31 04:22:31;;;;;;;12.37;10.50;;;;;;;10.34;95.41;99492.84;5055011;28;20590;-68
2023/10/31 04:24:58;;;;;;;14.30;10.80;;;;;;;10.35;95.18;99488.31;5054996;28;20183;-68
2023/10/31 04:27:24;;;;;;;13.53;11.43;;;;;;;10.34;95.15;99492.00;5055129;28;20211;-68
2023/10/31 04:29:51;;;;;;;15.77;11.50;;;;;;;10.36;95.22;99493.47;5055088;28;20679;-68
2023/10/31 04:32:17;;;;;;;17.30;11.13;;;;;;;10.35;95.41;99491.00;5055143;28;20186;-68
2023/10/31 04:34:44;;;;;;;15.23;10.77;;;;;;;10.40;95.11;99492.09;5055342;28;20175;-68
2023/10/31 04:37:10;;;;;;;12.07;10.97;;;;;;;10.36;95.18;99493.47;5055023;28;20591;-68
2023/10/31 04:39:37;;;;;;;11.90;10.67;;;;;;;10.37;95.40;99494.31;5054702;28;20172;-68
2023/10/31 04:42:03;;;;;;;10.83;9.77;;;;;;;10.35;95.29;99497.19;5054981;28;20184;-68
2023/10/31 04:44:30;;;;;;;12.27;9.67;;;;;;;10.36;95.29;99506.00;5055428;28;20681;-68
2023/10/31 04:46:56;;;;;;;11.83;10.60;;;;;;;10.33;95.29;99509.88;5054501;28;20203;-68
2023/10/31 04:49:23;;;;;;;11.20;9.80;;;;;;;10.30;95.68;99504.06;5055225;28;20217;-68
2023/10/31 04:51:50;;;;;;;11.03;9.97;;;;;;;10.31;95.86;99506.53;5055041;28;20233;-68
2023/10/31 04:54:16;;;;;;;10.10;9.27;;;;;;;10.23;96.14;99511.94;5054971;28;20187;-68
2023/10/31 04:56:42;;;;;;;10.40;9.37;;;;;;;10.29;95.92;99507.72;5054440;28;20207;-68
2023/10/31 04:59:09;;;;;;;10.10;9.17;;;;;;;10.26;95.63;99514.28;5054845;28;20213;-68
2023/10/31 05:01:35;;;;;;;10.63;9.70;;;;;;;10.25;95.72;99519.78;5054346;28;20184;-68
2023/10/31 05:04:02;;;;;;;11.13;9.87;;;;;;;10.28;95.76;99517.59;5053369;28;20670;-67
2023/10/31 05:06:38;;;;;;;14.50;9.30;;;;;;;10.28;95.26;99517.59;5054464;28;20207;-68
2023/10/31 05:09:05;;;;;;;10.50;9.67;;;;;;;10.32;95.27;99518.88;5054320;28;20233;-68
2023/10/31 05:11:32;;;;;;;11.47;10.40;;;;;;;10.28;95.08;99524.75;5054360;28;20192;-67
2023/10/31 05:13:58;;;;;;;10.03;9.13;;;;;;;10.31;95.16;99521.75;5052836;28;20190;-68
2023/10/31 05:16:25;;;;;;;10.07;9.23;;;;;;;10.29;95.39;99524.59;5054145;28;20228;-68
2023/10/31 05:18:52;;;;;;;12.57;11.37;;;;;;;10.31;95.17;99540.44;5054790;28;20190;-68
2023/10/31 05:21:20;;;;;;;10.80;9.83;;;;;;;10.33;94.94;99541.94;5053873;28;20241;-68
2023/10/31 05:23:47;;;;;;;11.37;10.27;;;;;;;10.31;94.79;99545.78;5054171;28;20175;-67
2023/10/31 05:26:13;;;;;;;10.93;10.07;;;;;;;10.33;94.75;99549.94;5053788;28;20575;-68
2023/10/31 05:28:39;;;;;;;11.23;10.30;;;;;;;10.32;94.71;99548.25;5053864;28;20187;-68
2023/10/31 05:31:06;;;;;;;11.37;10.47;;;;;;;10.29;94.04;99550.47;5053935;28;20207;-68
2023/10/31 05:33:32;;;;;;;14.07;10.67;;;;;;;10.28;93.88;99556.81;5053984;28;20183;-67
2023/10/31 05:35:59;;;;;;;10.70;9.77;;;;;;;10.35;93.91;99555.94;5053552;28;20179;-68
2023/10/31 05:38:25;;;;;;;9.90;8.93;;;;;;;10.32;94.01;99574.16;5054116;28;20237;-68
2023/10/31 05:40:52;;;;;;;9.10;8.40;;;;;;;10.29;93.58;99567.34;5053561;28;20183;-68
2023/10/31 05:43:18;;;;;;;9.90;9.00;;;;;;;10.25;93.94;99576.72;5053826;28;20555;-68
2023/10/31 05:45:45;;;;;;;9.90;9.10;;;;;;;10.23;93.66;99578.72;5053401;28;20183;-68
2023/10/31 05:48:14;;;;;;;9.57;8.77;;;;;;;10.28;92.67;99575.50;5053674;28;20282;-68
2023/10/31 05:50:42;;;;;;;12.80;10.50;;;;;;;10.28;92.42;99572.84;5053874;28;20368;-68
2023/10/31 05:53:08;;;;;;;9.60;9.00;;;;;;;10.32;92.20;99585.66;5053362;28;20191;-68
2023/10/31 05:55:38;;;;;;;18.10;10.80;;;;;;;10.39;91.95;99589.31;5053651;28;20182;-68
2023/10/31 05:58:05;;;;;;;13.73;11.47;;;;;;;10.35;92.07;99598.69;5053879;28;20210;-68
2023/10/31 06:00:31;;;;;;;13.37;12.07;;;;;;;10.42;91.66;99604.13;5053228;28;20183;-68
2023/10/31 06:02:58;;;;;;;12.10;11.13;;;;;;;10.35;91.97;99608.53;5053208;28;20659;-67
2023/10/31 06:05:24;;;;;;;19.07;11.93;;;;;;;10.36;91.30;99604.84;5053460;28;20199;-67
2023/10/31 06:07:51;;;;;;;14.63;12.43;;;;;;;10.39;90.85;99615.19;5053084;28;20215;-67
2023/10/31 06:10:18;;;;;;;12.87;11.50;;;;;;;10.42;90.82;99612.16;5053610;28;20562;-67
2023/10/31 06:12:44;;;;;;;14.40;11.53;;;;;;;10.44;90.22;99613.63;5053665;28;20252;-67
2023/10/31 06:15:11;;;;;;;13.73;12.33;;;;;;;10.40;90.24;99620.34;5053096;28;20195;-67
2023/10/31 06:17:37;;;;;;;13.27;12.07;;;;;;;10.45;90.41;99625.16;5053013;28;20631;-67
2023/10/31 06:20:05;;;;;;;13.77;12.30;;;;;;;10.41;90.54;99637.19;5053055;28;20179;-67
2023/10/31 06:22:32;;;;;;;14.03;12.60;;;;;;;10.43;90.57;99632.53;5053268;28;20261;-67
2023/10/31 06:24:59;;;;;;;14.83;11.97;;;;;;;10.39;90.62;99648.09;5053486;28;20697;-67
2023/10/31 06:27:25;;;;;;;20.17;12.77;;;;;;;10.35;90.61;99644.09;5053092;28;20265;-67
2023/10/31 06:29:52;;;;;;;22.83;13.97;;;;;;;10.38;90.48;99646.41;5052807;28;20260;-67
2023/10/31 06:32:39;;;;;;;13.33;12.13;;;;;;;10.40;90.49;99655.06;5053134;28;20229;-67
2023/10/31 06:35:06;;;;;;;22.17;13.80;;;;;;;10.42;90.12;99662.91;5052811;28;20309;-67
2023/10/31 06:37:33;;;;;;;14.60;12.63;;;;;;;10.42;90.38;99658.41;5053088;28;20324;-67
2023/10/31 06:39:59;;;;;;;22.50;13.80;;;;;;;10.36;90.57;99668.97;5053396;28;20708;-67
2023/10/31 06:42:26;;;;;;;13.47;12.27;;;;;;;10.41;89.92;99663.94;5052870;28;20187;-67
2023/10/31 06:44:53;;;;;;;15.00;13.00;;;;;;;10.35;90.36;99670.00;5053313;28;20237;-67
2023/10/31 06:47:20;;;;;;;14.20;13.00;;;;;;;10.31;90.48;99687.38;5053229;28;20253;-67
2023/10/31 06:49:46;;;;;;;14.23;12.37;;;;;;;10.28;90.38;99679.69;5053276;28;20221;-67
2023/10/31 06:52:13;;;;;;;13.60;11.93;;;;;;;10.36;89.91;99685.81;5052762;28;20191;-67
2023/10/31 06:54:39;;;;;;;14.40;10.63;;;;;;;10.40;89.92;99689.81;5052674;28;20241;-67
2023/10/31 06:57:06;;;;;;;24.10;11.70;;;;;;;10.43;90.09;99691.31;5053149;28;20211;-67
2023/10/31 06:59:32;;;;;;;15.80;12.33;;;;;;;10.48;89.92;99688.94;5052666;28;20188;-67
2023/10/31 07:01:58;;;;;;;14.63;12.43;;;;;;;10.52;90.32;99690.25;5052721;28;20528;-67
2023/10/31 07:04:25;;;;;;;14.57;12.77;;;;;;;10.47;90.42;99700.63;5053098;28;20210;-67
2023/10/31 07:06:56;;;;;;;12.10;11.00;;;;;;;10.50;90.73;99695.78;5052556;28;20550;-67
2023/10/31 07:09:24;;;;;;;14.60;12.93;;;;;;;10.56;90.52;99701.44;5052890;28;20623;-67
2023/10/31 07:11:51;;;;;;;14.17;12.73;;;;;;;10.56;90.85;99706.78;5053118;28;20337;-67
2023/10/31 07:14:17;;;;;;;19.90;12.70;;;;;;;10.55;90.76;99708.59;5052671;28;20233;-67
2023/10/31 07:16:44;;;;;;;15.67;13.00;;;;;;;10.56;90.70;99710.28;5052381;28;20223;-67
2023/10/31 07:19:11;;;;;;;16.10;13.27;;;;;;;10.56;91.14;99712.13;5052475;28;20206;-67
2023/10/31 07:21:37;;;;;;;16.73;14.07;;;;;;;10.61;91.20;99707.88;5052505;28;20183;-67
2023/10/31 07:24:04;;;;;;;27.90;13.67;;;;;;;10.62;91.42;99706.03;5051194;28;20195;-67
2023/10/31 07:26:31;;;;;;;16.83;13.67;;;;;;;10.64;91.80;99712.06;5053226;28;20207;-67
2023/10/31 07:28:57;;;;;;;15.47;14.00;;;;;;;10.61;91.93;99713.22;5056480;28;20206;-67
2023/10/31 07:31:23;;;;;;;13.73;12.33;;;;;;;10.55;91.74;99713.94;5055958;28;20228;-67
2023/10/31 07:33:50;;;;;;;14.10;12.40;;;;;;;10.53;91.91;99724.81;5056241;28;20647;-67
2023/10/31 07:36:16;;;;;;;13.07;11.90;;;;;;;10.50;91.55;99716.31;5055816;28;20256;-67
2023/10/31 07:38:43;;;;;;;11.50;10.70;;;;;;;10.58;91.79;99720.78;5056137;28;20187;-67
2023/10/31 07:41:09;;;;;;;12.43;11.17;;;;;;;10.61;91.49;99723.13;5055859;28;20533;-67
2023/10/31 07:43:36;;;;;;;16.07;11.33;;;;;;;10.65;91.44;99725.22;5055746;28;20187;-67
2023/10/31 07:46:04;;;;;;;11.20;10.17;;;;;;;10.62;91.69;99728.25;5056426;28;20199;-67
2023/10/31 07:48:31;;;;;;;11.87;10.87;;;;;;;10.62;91.16;99733.59;5056262;28;20218;-67
2023/10/31 07:50:57;;;;;;;11.80;10.90;;;;;;;10.60;91.02;99726.78;5055594;28;20206;-67
2023/10/31 07:53:24;;;;;;;12.57;11.40;;;;;;;10.62;90.90;99727.44;5055880;28;20188;-67
2023/10/31 07:55:50;;;;;;;11.93;10.93;;;;;;;10.59;91.05;99733.97;5055917;28;20195;-67
2023/10/31 07:58:17;;;;;;;11.33;10.40;;;;;;;10.62;91.25;99733.59;5055751;28;20601;-67
2023/10/31 08:00:43;;;;;;;12.53;11.37;;;;;;;10.61;90.86;99726.59;5055455;28;20234;-67
2023/10/31 08:03:10;;;;;;;12.80;11.07;;;;;;;10.70;90.95;99736.22;5055672;28;20618;-67
2023/10/31 08:05:36;;;;;;;11.67;10.97;;;;;;;10.69;90.31;99742.59;5055366;28;20233;-67
2023/10/31 08:08:03;;;;;;;12.33;11.43;;;;;;;10.78;91.02;99748.72;5055723;28;20211;-67
2023/10/31 08:10:29;;;;;;;13.57;12.40;;;;;;;10.74;90.29;99740.22;5055447;28;20211;-67
2023/10/31 08:12:56;;;;;;;12.87;11.87;;;;;;;10.79;90.61;99743.19;5055237;28;20249;-67
2023/10/31 08:15:22;;;;;;;13.97;12.33;;;;;;;10.83;90.13;99749.00;5055014;28;20183;-67
2023/10/31 08:17:50;;;;;;;15.67;12.23;;;;;;;10.79;90.22;99743.19;5055029;28;20582;-67
2023/10/31 08:20:16;;;;;;;14.33;13.13;;;;;;;10.79;90.64;99750.38;5055014;28;20188;-67
2023/10/31 08:22:43;;;;;;;15.13;13.60;;;;;;;10.80;90.65;99742.19;5055304;28;20184;-67
2023/10/31 08:25:09;;;;;;;13.70;12.57;;;;;;;10.89;90.30;99742.97;5055252;28;20191;-67
2023/10/31 08:27:36;;;;;;;16.40;13.43;;;;;;;10.85;90.33;99747.84;5055128;28;20613;-67
2023/10/31 08:30:02;;;;;;;13.97;12.93;;;;;;;10.85;89.88;99745.16;5055097;28;20191;-67
2023/10/31 08:32:29;;;;;;;14.20;12.93;;;;;;;10.94;89.86;99752.13;5055386;28;20206;-67
2023/10/31 08:35:02;;;;;;;14.27;12.90;;;;;;;10.92;89.00;99754.13;5054793;28;20183;-67
2023/10/31 08:37:29;;;;;;;16.60;13.90;;;;;;;10.86;88.68;99762.06;5055156;28;20210;-67
2023/10/31 08:39:55;;;;;;;15.37;13.87;;;;;;;10.85;88.25;99755.88;5054967;28;20585;-67
2023/10/31 08:42:22;;;;;;;13.17;12.13;;;;;;;10.86;87.91;99762.84;5054635;28;20245;-67
2023/10/31 08:44:48;;;;;;;14.20;12.40;;;;;;;10.87;88.11;99761.84;5054947;28;20249;-67
2023/10/31 08:47:15;;;;;;;12.97;11.87;;;;;;;10.94;88.31;99759.31;5054518;28;20618;-67
2023/10/31 08:49:41;;;;;;;11.93;11.07;;;;;;;11.02;88.63;99769.97;5054529;28;20183;-67
2023/10/31 08:52:08;;;;;;;12.63;11.43;;;;;;;11.15;88.93;99769.38;5054423;28;20614;-67
2023/10/31 08:54:34;;;;;;;13.27;12.20;;;;;;;11.09;88.01;99776.25;5054396;28;20183;-67
2023/10/31 08:57:00;;;;;;;13.00;12.00;;;;;;;11.03;87.42;99779.66;5054362;28;20694;-67
2023/10/31 08:59:27;;;;;;;19.17;12.27;;;;;;;11.04;87.95;99786.66;5054605;28;20188;-67
2023/10/31 09:01:53;;;;;;;14.87;13.47;;;;;;;10.98;87.51;99790.88;5054825;28;20180;-67
2023/10/31 09:04:20;;;;;;;14.80;13.43;;;;;;;10.89;87.93;99804.47;5055021;28;20197;-67
2023/10/31 09:06:46;;;;;;;14.30;13.00;;;;;;;10.95;87.60;99809.09;5054434;28;20203;-67
2023/10/31 09:09:13;;;;;;;15.47;13.90;;;;;;;11.00;88.20;99817.44;5054592;28;20195;-67
2023/10/31 09:11:39;;;;;;;16.03;14.40;;;;;;;10.92;87.33;99818.31;5054052;28;20213;-67
2023/10/31 09:14:06;;;;;;;14.23;12.87;;;;;;;10.93;87.18;99819.16;5054053;28;20187;-67
2023/10/31 09:16:32;;;;;;;13.97;12.80;;;;;;;10.96;87.82;99824.97;5053982;28;20640;-67
2023/10/31 09:18:59;;;;;;;14.70;13.37;;;;;;;11.03;88.00;99829.63;5053974;28;20191;-67
2023/10/31 09:21:25;;;;;;;14.17;12.73;;;;;;;10.94;86.99;99826.19;5054100;28;20593;-67
2023/10/31 09:23:51;;;;;;;13.93;12.60;;;;;;;10.95;86.94;99835.84;5054407;28;20198;-67
2023/10/31 09:26:18;;;;;;;13.73;12.50;;;;;;;10.92;87.16;99834.38;5054352;28;20264;-67
2023/10/31 09:28:49;;;;;;;23.20;12.30;;;;;;;11.01;86.81;99840.50;5069387;28;20203;-67
2023/10/31 09:31:17;;;;;;;12.43;11.17;;;;;;;11.06;87.10;99843.50;5053887;28;20200;-66
2023/10/31 09:33:45;;;;;;;13.03;12.07;;;;;;;11.12;87.33;99848.13;5053680;28;20199;-66
2023/10/31 09:36:13;;;;;;;19.57;10.97;;;;;;;11.16;87.09;99848.63;5053571;28;20218;-67
2023/10/31 09:38:40;;;;;;;14.03;12.63;;;;;;;11.18;86.76;99854.59;5053608;28;20191;-67
2023/10/31 09:41:06;;;;;;;13.47;12.07;;;;;;;11.21;87.13;99865.78;5053557;28;20717;-67
2023/10/31 09:43:33;;;;;;;14.27;12.47;;;;;;;11.24;86.98;99869.97;5053809;28;20183;-67
2023/10/31 09:46:02;;;;;;;14.27;13.07;;;;;;;11.15;86.33;99871.03;5053719;28;20188;-67
2023/10/31 09:48:29;;;;;;;13.70;12.63;;;;;;;11.18;86.68;99876.00;5054307;28;20583;-67
2023/10/31 09:50:56;;;;;;;14.20;12.90;;;;;;;11.27;86.74;99875.78;5053196;28;20207;-67
2023/10/31 09:53:23;;;;;;;27.07;11.80;;;;;;;11.29;85.93;99875.59;5053371;28;20599;-66
2023/10/31 09:55:51;;;;;;;12.30;11.37;;;;;;;11.34;86.07;99879.41;5053566;28;20591;-67
2023/10/31 09:58:18;;;;;;;12.43;11.33;;;;;;;11.37;86.55;99888.94;5053585;28;20546;-67
2023/10/31 10:00:44;;;;;;;10.33;9.60;;;;;;;11.35;86.25;99886.44;5053886;28;20187;-66
2023/10/31 10:03:11;;;;;;;12.63;9.97;;;;;;;11.47;86.45;99892.22;5053265;28;20233;-67
2023/10/31 10:05:38;;;;;;;12.80;10.30;;;;;;;11.55;86.76;99897.50;5053516;28;20273;-67
2023/10/31 10:08:06;;;;;;;11.63;10.70;;;;;;;11.58;85.96;99899.84;5053129;28;20268;-66
2023/10/31 10:10:34;;;;;;;10.67;9.67;;;;;;;11.58;85.56;99910.56;5053112;28;20211;-66
2023/10/31 10:13:03;;;;;;;10.43;9.53;;;;;;;11.63;86.22;99910.84;5053407;28;20729;-66
2023/10/31 10:15:29;;;;;;;11.00;10.20;;;;;;;11.57;85.52;99919.59;5053452;28;20215;-66
2023/10/31 10:17:58;;;;;;;12.00;10.73;;;;;;;11.54;85.50;99919.13;5053055;28;20211;-66
2023/10/31 10:20:26;;;;;;;13.70;10.77;;;;;;;11.52;86.03;99923.81;5052195;28;20189;-67
2023/10/31 10:22:54;;;;;;;12.70;11.43;;;;;;;11.51;85.93;99935.50;5053030;28;20209;-67
2023/10/31 10:25:20;;;;;;;11.27;10.23;;;;;;;11.59;85.54;99940.81;5053324;28;20179;-67
2023/10/31 10:27:47;;;;;;;12.17;11.13;;;;;;;11.59;85.58;99949.69;5053016;28;20269;-67
2023/10/31 10:30:16;;;;;;;10.60;9.63;;;;;;;11.55;86.02;99947.53;5053470;28;20196;-67
2023/10/31 10:32:42;;;;;;;11.37;10.53;;;;;;;11.46;85.83;99952.09;5053359;28;20203;-70
2023/10/31 10:35:09;;;;;;;11.53;10.47;;;;;;;11.46;86.52;99947.59;5052970;28;20632;-70
2023/10/31 10:37:37;;;;;;;15.47;9.60;;;;;;;11.54;86.02;99957.44;5052890;28;20209;-69
2023/10/31 10:40:06;;;;;;;9.17;8.87;;;;;;;11.58;86.00;99961.44;5053160;28;20183;-70
2023/10/31 10:42:44;;;;;;;11.33;10.07;;;;;;;11.55;86.16;99953.72;5053437;28;20171;-69
2023/10/31 10:45:13;;;;;;;10.90;10.17;;;;;;;11.66;85.81;99961.38;5053693;28;20248;-67
2023/10/31 10:47:40;;;;;;;10.33;9.43;;;;;;;11.62;85.70;99962.72;5053531;28;20302;-66
2023/10/31 10:50:08;;;;;;;10.17;9.30;;;;;;;11.60;85.46;99962.06;5053084;28;20187;-66
2023/10/31 10:53:07;;;;;;;9.30;8.53;;;;;;;11.69;85.40;99958.31;5053169;28;20628;-66
2023/10/31 10:55:39;;;;;;;14.20;10.33;;;;;;;11.70;86.41;99969.88;5053347;28;20203;-66
2023/10/31 10:58:21;;;;;;;15.83;9.57;;;;;;;11.77;85.35;99970.84;5053011;28;20238;-67
2023/10/31 11:00:49;;;;;;;11.20;8.37;;;;;;;11.76;84.84;99967.34;5053060;28;20229;-66
2023/10/31 11:03:19;;;;;;;9.47;8.77;;;;;;;11.72;85.16;99963.34;5056445;28;20721;-66
2023/10/31 11:05:46;;;;;;;10.03;9.00;;;;;;;11.75;85.06;99967.53;5056658;28;20552;-66
2023/10/31 11:08:13;;;;;;;10.00;9.17;;;;;;;11.74;85.57;99966.69;5057018;28;20249;-66
2023/10/31 11:10:41;;;;;;;10.20;9.43;;;;;;;11.80;84.93;99968.66;5056633;28;20183;-66
2023/10/31 11:13:08;;;;;;;9.50;8.80;;;;;;;11.92;84.44;99970.94;5056974;28;20558;-66
2023/10/31 11:15:35;;;;;;;10.40;9.03;;;;;;;11.77;84.26;99963.66;5056487;28;20195;-66
2023/10/31 11:18:02;;;;;;;13.60;9.40;;;;;;;11.78;85.88;99978.72;5056270;28;20617;-66
2023/10/31 11:20:29;;;;;;;10.00;9.00;;;;;;;11.74;84.71;99966.69;5056683;28;20183;-66